sensor_id;sensor_type;location;lat;lon;timestamp;pressure;altitude;pressure_sealevel;temperature;humidity
56174;BME280;42058;52.308;20.924;2022-08-27T00:00:29;100340.25;;;21.36;86.04
56174;BME280;42058;52.308;20.924;2022-08-27T00:02:58;100343.98;;;21.34;86.33
56174;BME280;42058;52.308;20.924;2022-08-27T00:05:24;100335.81;;;21.29;86.76
56174;BME280;42058;52.308;20.924;2022-08-27T00:07:50;100335.08;;;21.27;87.57
56174;BME280;42058;52.308;20.924;2022-08-27T00:10:20;100335.78;;;21.24;87.49
56174;BME280;42058;52.308;20.924;2022-08-27T00:12:47;100329.80;;;21.20;88.17
56174;BME280;42058;52.308;20.924;2022-08-27T00:15:15;100325.53;;;21.18;87.58
56174;BME280;42058;52.308;20.924;2022-08-27T00:17:43;100322.97;;;21.16;88.15
56174;BME280;42058;52.308;20.924;2022-08-27T00:20:12;100317.23;;;21.15;87.90
56174;BME280;42058;52.308;20.924;2022-08-27T00:22:40;100316.00;;;21.13;87.79
56174;BME280;42058;52.308;20.924;2022-08-27T00:25:07;100309.80;;;21.13;88.15
56174;BME280;42058;52.308;20.924;2022-08-27T00:27:33;100309.06;;;21.11;88.10
56174;BME280;42058;52.308;20.924;2022-08-27T00:30:00;100312.58;;;21.11;88.63
56174;BME280;42058;52.308;20.924;2022-08-27T00:32:26;100312.69;;;21.10;88.55
56174;BME280;42058;52.308;20.924;2022-08-27T00:34:52;100313.67;;;21.09;88.88
56174;BME280;42058;52.308;20.924;2022-08-27T00:37:18;100308.05;;;21.06;88.66
56174;BME280;42058;52.308;20.924;2022-08-27T00:39:44;100309.98;;;21.04;88.65
56174;BME280;42058;52.308;20.924;2022-08-27T00:42:11;100312.79;;;21.03;88.71
56174;BME280;42058;52.308;20.924;2022-08-27T00:44:38;100306.80;;;20.99;88.55
56174;BME280;42058;52.308;20.924;2022-08-27T00:47:07;100314.55;;;20.97;88.72
56174;BME280;42058;52.308;20.924;2022-08-27T00:49:47;100313.81;;;20.95;88.96
56174;BME280;42058;52.308;20.924;2022-08-27T00:52:27;100317.67;;;20.90;89.47
56174;BME280;42058;52.308;20.924;2022-08-27T00:55:11;100310.35;;;20.87;89.61
56174;BME280;42058;52.308;20.924;2022-08-27T00:57:41;100311.41;;;20.84;89.85
56174;BME280;42058;52.308;20.924;2022-08-27T01:00:13;100314.92;;;20.79;90.08
56174;BME280;42058;52.308;20.924;2022-08-27T01:02:41;100308.44;;;20.76;90.10
56174;BME280;42058;52.308;20.924;2022-08-27T01:05:11;100307.31;;;20.73;90.38
56174;BME280;42058;52.308;20.924;2022-08-27T01:07:42;100316.56;;;20.74;90.82
56174;BME280;42058;52.308;20.924;2022-08-27T01:10:13;100309.98;;;20.73;90.93
56174;BME280;42058;52.308;20.924;2022-08-27T01:12:41;100310.97;;;20.72;90.79
56174;BME280;42058;52.308;20.924;2022-08-27T01:15:10;100306.22;;;20.70;91.03
56174;BME280;42058;52.308;20.924;2022-08-27T01:17:40;100304.48;;;20.69;91.57
56174;BME280;42058;52.308;20.924;2022-08-27T01:20:12;100304.59;;;20.67;91.27
56174;BME280;42058;52.308;20.924;2022-08-27T01:23:09;100302.13;;;20.64;91.42
56174;BME280;42058;52.308;20.924;2022-08-27T01:25:50;100301.39;;;20.62;91.43
56174;BME280;42058;52.308;20.924;2022-08-27T01:28:17;100303.39;;;20.59;91.85
56174;BME280;42058;52.308;20.924;2022-08-27T01:30:44;100306.30;;;20.55;91.95
56174;BME280;42058;52.308;20.924;2022-08-27T01:33:14;100304.67;;;20.53;92.13
56174;BME280;42058;52.308;20.924;2022-08-27T01:35:43;100305.02;;;20.48;92.45
56174;BME280;42058;52.308;20.924;2022-08-27T01:38:12;100302.94;;;20.46;92.49
56174;BME280;42058;52.308;20.924;2022-08-27T01:40:40;100291.86;;;20.45;93.03
56174;BME280;42058;52.308;20.924;2022-08-27T01:43:07;100299.88;;;20.45;93.10
56174;BME280;42058;52.308;20.924;2022-08-27T01:45:37;100299.38;;;20.46;93.42
56174;BME280;42058;52.308;20.924;2022-08-27T01:48:05;100298.15;;;20.44;93.51
56174;BME280;42058;52.308;20.924;2022-08-27T01:50:37;100295.13;;;20.43;93.58
56174;BME280;42058;52.308;20.924;2022-08-27T01:53:11;100299.13;;;20.43;93.62
56174;BME280;42058;52.308;20.924;2022-08-27T01:55:37;100298.39;;;20.41;93.80
56174;BME280;42058;52.308;20.924;2022-08-27T01:58:04;100298.59;;;20.38;94.14
56174;BME280;42058;52.308;20.924;2022-08-27T02:00:33;100295.17;;;20.36;94.21
56174;BME280;42058;52.308;20.924;2022-08-27T02:03:02;100298.80;;;20.35;94.22
56174;BME280;42058;52.308;20.924;2022-08-27T02:05:29;100296.36;;;20.32;94.29
56174;BME280;42058;52.308;20.924;2022-08-27T02:07:56;100295.72;;;20.28;94.85
56174;BME280;42058;52.308;20.924;2022-08-27T02:10:26;100298.00;;;20.27;94.95
56174;BME280;42058;52.308;20.924;2022-08-27T02:12:54;100295.42;;;20.26;94.76
56174;BME280;42058;52.308;20.924;2022-08-27T02:15:20;100293.14;;;20.27;94.80
56174;BME280;42058;52.308;20.924;2022-08-27T02:17:46;100288.75;;;20.26;94.95
56174;BME280;42058;52.308;20.924;2022-08-27T02:20:14;100282.55;;;20.25;94.98
56174;BME280;42058;52.308;20.924;2022-08-27T02:22:40;100289.34;;;20.24;95.11
56174;BME280;42058;52.308;20.924;2022-08-27T02:25:08;100286.31;;;20.23;95.04
56174;BME280;42058;52.308;20.924;2022-08-27T02:27:38;100280.78;;;20.19;95.15
56174;BME280;42058;52.308;20.924;2022-08-27T02:30:08;100282.80;;;20.15;95.31
56174;BME280;42058;52.308;20.924;2022-08-27T02:32:35;100289.23;;;20.12;95.24
56174;BME280;42058;52.308;20.924;2022-08-27T02:35:01;100290.02;;;20.07;95.26
56174;BME280;42058;52.308;20.924;2022-08-27T02:37:29;100287.19;;;20.03;95.26
56174;BME280;42058;52.308;20.924;2022-08-27T02:39:57;100297.71;;;19.99;95.42
56174;BME280;42058;52.308;20.924;2022-08-27T02:42:23;100302.17;;;19.98;96.06
56174;BME280;42058;52.308;20.924;2022-08-27T02:44:50;100304.59;;;19.96;96.06
56174;BME280;42058;52.308;20.924;2022-08-27T02:47:16;100303.84;;;19.94;96.12
56174;BME280;42058;52.308;20.924;2022-08-27T02:49:42;100303.45;;;19.93;96.52
56174;BME280;42058;52.308;20.924;2022-08-27T02:52:10;100311.01;;;19.93;96.37
56174;BME280;42058;52.308;20.924;2022-08-27T02:54:36;100303.09;;;19.92;96.26
56174;BME280;42058;52.308;20.924;2022-08-27T02:57:02;100300.63;;;19.89;96.41
56174;BME280;42058;52.308;20.924;2022-08-27T02:59:28;100297.59;;;19.88;96.70
56174;BME280;42058;52.308;20.924;2022-08-27T03:01:54;100307.49;;;19.86;96.47
56174;BME280;42058;52.308;20.924;2022-08-27T03:04:20;100300.06;;;19.84;97.04
56174;BME280;42058;52.308;20.924;2022-08-27T03:06:47;100311.73;;;19.83;96.99
56174;BME280;42058;52.308;20.924;2022-08-27T03:09:13;100303.33;;;19.82;97.35
56174;BME280;42058;52.308;20.924;2022-08-27T03:11:40;100311.34;;;19.82;97.52
56174;BME280;42058;52.308;20.924;2022-08-27T03:14:06;100299.81;;;19.81;97.71
56174;BME280;42058;52.308;20.924;2022-08-27T03:16:35;100298.48;;;19.81;97.59
56174;BME280;42058;52.308;20.924;2022-08-27T03:19:03;100292.74;;;19.80;97.57
56174;BME280;42058;52.308;20.924;2022-08-27T03:21:33;100295.05;;;19.79;97.66
56174;BME280;42058;52.308;20.924;2022-08-27T03:24:00;100296.98;;;19.77;97.85
56174;BME280;42058;52.308;20.924;2022-08-27T03:26:28;100295.74;;;19.75;97.96
56174;BME280;42058;52.308;20.924;2022-08-27T03:28:58;100291.90;;;19.72;97.82
56174;BME280;42058;52.308;20.924;2022-08-27T03:31:26;100296.09;;;19.69;98.03
56174;BME280;42058;52.308;20.924;2022-08-27T03:33:57;100292.22;;;19.68;98.23
56174;BME280;42058;52.308;20.924;2022-08-27T03:36:26;100295.94;;;19.65;98.27
56174;BME280;42058;52.308;20.924;2022-08-27T03:38:55;100289.26;;;19.65;98.56
56174;BME280;42058;52.308;20.924;2022-08-27T03:41:22;100292.03;;;19.64;98.36
56174;BME280;42058;52.308;20.924;2022-08-27T03:43:49;100281.19;;;19.59;98.17
56174;BME280;42058;52.308;20.924;2022-08-27T03:46:18;100286.42;;;19.61;98.60
56174;BME280;42058;52.308;20.924;2022-08-27T03:48:47;100288.18;;;19.55;98.26
56174;BME280;42058;52.308;20.924;2022-08-27T03:51:14;100288.18;;;19.55;98.26
56174;BME280;42058;52.308;20.924;2022-08-27T03:53:43;100282.55;;;19.52;98.71
56174;BME280;42058;52.308;20.924;2022-08-27T03:56:11;100284.95;;;19.50;98.70
56174;BME280;42058;52.308;20.924;2022-08-27T03:58:39;100292.57;;;19.49;98.87
56174;BME280;42058;52.308;20.924;2022-08-27T04:01:06;100282.58;;;19.45;98.99
56174;BME280;42058;52.308;20.924;2022-08-27T04:03:33;100288.40;;;19.45;99.01
56174;BME280;42058;52.308;20.924;2022-08-27T04:06:01;100280.00;;;19.44;99.35
56174;BME280;42058;52.308;20.924;2022-08-27T04:08:28;100280.75;;;19.46;99.65
56174;BME280;42058;52.308;20.924;2022-08-27T04:10:54;100280.75;;;19.46;99.65
56174;BME280;42058;52.308;20.924;2022-08-27T04:13:22;100288.76;;;19.46;99.65
56174;BME280;42058;52.308;20.924;2022-08-27T04:15:51;100289.73;;;19.45;99.63
56174;BME280;42058;52.308;20.924;2022-08-27T04:18:18;100288.89;;;19.44;100.00
56174;BME280;42058;52.308;20.924;2022-08-27T04:20:46;100287.65;;;19.43;100.00
56174;BME280;42058;52.308;20.924;2022-08-27T04:23:14;100281.92;;;19.42;100.00
56174;BME280;42058;52.308;20.924;2022-08-27T04:25:41;100288.10;;;19.42;100.00
56174;BME280;42058;52.308;20.924;2022-08-27T04:28:09;100293.57;;;19.40;100.00
56174;BME280;42058;52.308;20.924;2022-08-27T04:30:43;100296.98;;;19.43;100.00
56174;BME280;42058;52.308;20.924;2022-08-27T04:33:12;100293.92;;;19.42;100.00
56174;BME280;42058;52.308;20.924;2022-08-27T04:35:40;100296.02;;;19.44;100.00
56174;BME280;42058;52.308;20.924;2022-08-27T04:38:06;100288.76;;;19.46;100.00
56174;BME280;42058;52.308;20.924;2022-08-27T04:40:35;100286.41;;;19.41;100.00
56174;BME280;42058;52.308;20.924;2022-08-27T04:43:20;100282.41;;;19.41;100.00
56174;BME280;42058;52.308;20.924;2022-08-27T04:45:47;100301.74;;;19.45;100.00
56174;BME280;42058;52.308;20.924;2022-08-27T04:48:15;100301.74;;;19.45;100.00
56174;BME280;42058;52.308;20.924;2022-08-27T04:50:45;100303.44;;;19.46;100.00
56174;BME280;42058;52.308;20.924;2022-08-27T04:53:13;100297.91;;;19.49;100.00
56174;BME280;42058;52.308;20.924;2022-08-27T04:55:47;100295.53;;;19.51;100.00
56174;BME280;42058;52.308;20.924;2022-08-27T04:58:12;100297.98;;;19.54;100.00
56174;BME280;42058;52.308;20.924;2022-08-27T05:00:47;100295.22;;;19.56;100.00
56174;BME280;42058;52.308;20.924;2022-08-27T05:03:16;100296.55;;;19.56;100.00
56174;BME280;42058;52.308;20.924;2022-08-27T05:05:44;100286.13;;;19.58;100.00
56174;BME280;42058;52.308;20.924;2022-08-27T05:08:12;100293.10;;;19.61;100.00
56174;BME280;42058;52.308;20.924;2022-08-27T05:10:44;100290.40;;;19.68;100.00
56174;BME280;42058;52.308;20.924;2022-08-27T05:13:09;100290.40;;;19.68;100.00
56174;BME280;42058;52.308;20.924;2022-08-27T05:15:37;100283.14;;;19.70;100.00
56174;BME280;42058;52.308;20.924;2022-08-27T05:18:05;100286.17;;;19.78;100.00
56174;BME280;42058;52.308;20.924;2022-08-27T05:20:39;100291.44;;;19.93;100.00
56174;BME280;42058;52.308;20.924;2022-08-27T05:23:08;100291.44;;;19.93;100.00
56174;BME280;42058;52.308;20.924;2022-08-27T05:25:40;100297.33;;;19.98;100.00
56174;BME280;42058;52.308;20.924;2022-08-27T05:28:10;100287.78;;;20.01;100.00
56174;BME280;42058;52.308;20.924;2022-08-27T05:30:41;100292.79;;;20.06;100.00
56174;BME280;42058;52.308;20.924;2022-08-27T05:33:10;100284.37;;;20.12;100.00
56174;BME280;42058;52.308;20.924;2022-08-27T05:35:41;100287.45;;;20.19;100.00
56174;BME280;42058;52.308;20.924;2022-08-27T05:38:08;100282.45;;;20.27;100.00
56174;BME280;42058;52.308;20.924;2022-08-27T05:40:35;100284.69;;;20.33;100.00
56174;BME280;42058;52.308;20.924;2022-08-27T05:43:03;100288.29;;;20.39;100.00
56174;BME280;42058;52.308;20.924;2022-08-27T05:45:30;100287.74;;;20.47;100.00
56174;BME280;42058;52.308;20.924;2022-08-27T05:47:56;100288.18;;;20.53;100.00
56174;BME280;42058;52.308;20.924;2022-08-27T05:50:26;100292.52;;;20.62;100.00
56174;BME280;42058;52.308;20.924;2022-08-27T05:52:52;100289.78;;;20.69;100.00
56174;BME280;42058;52.308;20.924;2022-08-27T05:55:18;100285.22;;;20.77;100.00
56174;BME280;42058;52.308;20.924;2022-08-27T05:57:45;100283.33;;;20.84;100.00
56174;BME280;42058;52.308;20.924;2022-08-27T06:00:11;100285.58;;;20.90;99.46
56174;BME280;42058;52.308;20.924;2022-08-27T06:02:56;100287.20;;;20.99;99.41
56174;BME280;42058;52.308;20.924;2022-08-27T06:05:22;100292.87;;;21.07;99.55
56174;BME280;42058;52.308;20.924;2022-08-27T06:07:49;100287.06;;;21.13;99.06
56174;BME280;42058;52.308;20.924;2022-08-27T06:10:15;100288.42;;;21.19;98.43
56174;BME280;42058;52.308;20.924;2022-08-27T06:12:41;100287.29;;;21.28;99.85
56174;BME280;42058;52.308;20.924;2022-08-27T06:15:07;100287.06;;;21.37;99.54
56174;BME280;42058;52.308;20.924;2022-08-27T06:17:34;100282.54;;;21.45;98.95
56174;BME280;42058;52.308;20.924;2022-08-27T06:20:00;100280.23;;;21.52;98.23
56174;BME280;42058;52.308;20.924;2022-08-27T06:22:29;100280.42;;;21.61;97.97
56174;BME280;42058;52.308;20.924;2022-08-27T06:24:55;100280.19;;;21.70;97.73
56174;BME280;42058;52.308;20.924;2022-08-27T06:27:26;100278.64;;;21.79;96.95
56174;BME280;42058;52.308;20.924;2022-08-27T06:29:52;100287.32;;;21.88;97.51
56174;BME280;42058;52.308;20.924;2022-08-27T06:32:18;100283.33;;;21.99;96.55
56174;BME280;42058;52.308;20.924;2022-08-27T06:34:47;100283.84;;;22.10;95.44
56174;BME280;42058;52.308;20.924;2022-08-27T06:37:13;100284.97;;;22.24;95.82
56174;BME280;42058;52.308;20.924;2022-08-27T06:39:40;100284.17;;;22.35;96.17
56174;BME280;42058;52.308;20.924;2022-08-27T06:42:09;100286.73;;;22.48;97.10
56174;BME280;42058;52.308;20.924;2022-08-27T06:44:38;100284.94;;;22.60;96.52
56174;BME280;42058;52.308;20.924;2022-08-27T06:47:08;100288.69;;;22.74;96.80
56174;BME280;42058;52.308;20.924;2022-08-27T06:49:40;100283.06;;;22.89;95.57
56174;BME280;42058;52.308;20.924;2022-08-27T06:52:17;100285.48;;;23.03;95.20
56174;BME280;42058;52.308;20.924;2022-08-27T06:54:43;100284.75;;;23.18;95.80
56174;BME280;42058;52.308;20.924;2022-08-27T06:57:12;100282.30;;;23.32;95.03
56174;BME280;42058;52.308;20.924;2022-08-27T06:59:38;100286.03;;;23.46;94.96
56174;BME280;42058;52.308;20.924;2022-08-27T07:02:11;100283.41;;;23.61;94.99
56174;BME280;42058;52.308;20.924;2022-08-27T07:04:42;100287.13;;;23.76;94.03
56174;BME280;42058;52.308;20.924;2022-08-27T07:07:10;100285.13;;;23.89;93.56
56174;BME280;42058;52.308;20.924;2022-08-27T07:09:39;100278.72;;;24.02;92.90
56174;BME280;42058;52.308;20.924;2022-08-27T07:12:05;100283.05;;;24.14;91.55
56174;BME280;42058;52.308;20.924;2022-08-27T07:14:34;100276.50;;;24.22;90.87
56174;BME280;42058;52.308;20.924;2022-08-27T07:17:00;100276.33;;;24.29;90.41
56174;BME280;42058;52.308;20.924;2022-08-27T07:19:26;100275.69;;;24.37;89.26
56174;BME280;42058;52.308;20.924;2022-08-27T07:21:54;100269.64;;;24.45;89.08
56174;BME280;42058;52.308;20.924;2022-08-27T07:24:20;100269.83;;;24.53;88.40
56174;BME280;42058;52.308;20.924;2022-08-27T07:26:46;100267.97;;;24.59;87.78
56174;BME280;42058;52.308;20.924;2022-08-27T07:29:15;100267.63;;;24.68;87.69
56174;BME280;42058;52.308;20.924;2022-08-27T07:31:41;100266.84;;;24.77;87.04
56174;BME280;42058;52.308;20.924;2022-08-27T07:34:08;100261.55;;;24.91;86.22
56174;BME280;42058;52.308;20.924;2022-08-27T07:36:36;100262.51;;;25.05;85.44
56174;BME280;42058;52.308;20.924;2022-08-27T07:39:04;100260.27;;;25.20;84.33
56174;BME280;42058;52.308;20.924;2022-08-27T07:41:31;100264.13;;;25.37;84.05
56174;BME280;42058;52.308;20.924;2022-08-27T07:43:59;100264.42;;;25.54;82.68
56174;BME280;42058;52.308;20.924;2022-08-27T07:46:44;100261.03;;;25.71;81.31
56174;BME280;42058;52.308;20.924;2022-08-27T07:49:16;100258.33;;;25.90;80.24
56174;BME280;42058;52.308;20.924;2022-08-27T07:51:42;100256.90;;;26.06;79.95
56174;BME280;42058;52.308;20.924;2022-08-27T07:54:08;100261.70;;;26.22;78.89
56174;BME280;42058;52.308;20.924;2022-08-27T07:56:35;100262.72;;;26.35;78.73
56174;BME280;42058;52.308;20.924;2022-08-27T07:59:01;100259.98;;;26.44;77.16
56174;BME280;42058;52.308;20.924;2022-08-27T08:01:28;100261.93;;;26.52;76.37
56174;BME280;42058;52.308;20.924;2022-08-27T08:03:55;100259.17;;;26.58;74.88
56174;BME280;42058;52.308;20.924;2022-08-27T08:06:21;100256.08;;;26.66;75.54
56174;BME280;42058;52.308;20.924;2022-08-27T08:08:47;100258.61;;;26.78;75.61
56174;BME280;42058;52.308;20.924;2022-08-27T08:11:15;100254.83;;;26.89;75.36
56174;BME280;42058;52.308;20.924;2022-08-27T08:13:44;100251.08;;;26.99;74.89
56174;BME280;42058;52.308;20.924;2022-08-27T08:16:12;100260.02;;;27.14;74.14
56174;BME280;42058;52.308;20.924;2022-08-27T08:18:39;100258.53;;;27.29;73.56
56174;BME280;42058;52.308;20.924;2022-08-27T08:21:08;100260.70;;;27.44;73.10
56174;BME280;42058;52.308;20.924;2022-08-27T08:23:36;100257.44;;;27.58;72.77
56174;BME280;42058;52.308;20.924;2022-08-27T08:26:03;100261.63;;;27.74;71.68
56174;BME280;42058;52.308;20.924;2022-08-27T08:28:29;100262.42;;;27.89;71.23
56174;BME280;42058;52.308;20.924;2022-08-27T08:30:57;100263.60;;;28.04;69.28
56174;BME280;42058;52.308;20.924;2022-08-27T08:33:23;100259.30;;;28.19;67.77
56174;BME280;42058;52.308;20.924;2022-08-27T08:35:50;100250.59;;;28.34;66.94
56174;BME280;42058;52.308;20.924;2022-08-27T08:38:18;100252.70;;;28.48;65.79
56174;BME280;42058;52.308;20.924;2022-08-27T08:40:50;100254.16;;;28.65;65.40
56174;BME280;42058;52.308;20.924;2022-08-27T08:43:40;100258.97;;;28.79;65.00
56174;BME280;42058;52.308;20.924;2022-08-27T08:46:24;100252.92;;;28.93;63.70
56174;BME280;42058;52.308;20.924;2022-08-27T08:49:01;100253.97;;;29.09;62.74
56174;BME280;42058;52.308;20.924;2022-08-27T08:51:48;100250.30;;;29.22;62.30
56174;BME280;42058;52.308;20.924;2022-08-27T08:54:19;100250.68;;;29.36;61.30
56174;BME280;42058;52.308;20.924;2022-08-27T08:57:07;100255.44;;;29.50;60.63
56174;BME280;42058;52.308;20.924;2022-08-27T08:59:37;100251.36;;;29.62;60.43
56174;BME280;42058;52.308;20.924;2022-08-27T09:02:07;100246.49;;;29.74;59.80
56174;BME280;42058;52.308;20.924;2022-08-27T09:04:36;100245.30;;;29.85;58.84
56174;BME280;42058;52.308;20.924;2022-08-27T09:07:12;100248.66;;;29.95;58.19
56174;BME280;42058;52.308;20.924;2022-08-27T09:09:57;100246.98;;;30.06;57.89
56174;BME280;42058;52.308;20.924;2022-08-27T09:12:29;100248.96;;;30.21;57.99
56174;BME280;42058;52.308;20.924;2022-08-27T09:15:11;100243.54;;;30.33;57.01
56174;BME280;42058;52.308;20.924;2022-08-27T09:17:42;100256.05;;;30.46;56.77
56174;BME280;42058;52.308;20.924;2022-08-27T09:20:10;100247.02;;;30.58;55.87
56174;BME280;42058;52.308;20.924;2022-08-27T09:25:39;100245.42;;;30.76;55.01
56174;BME280;42058;52.308;20.924;2022-08-27T09:28:10;100239.80;;;30.82;54.15
56174;BME280;42058;52.308;20.924;2022-08-27T09:31:05;100241.30;;;30.89;53.20
56174;BME280;42058;52.308;20.924;2022-08-27T09:33:34;100241.30;;;30.93;52.86
56174;BME280;42058;52.308;20.924;2022-08-27T09:36:02;100238.55;;;30.97;52.22
56174;BME280;42058;52.308;20.924;2022-08-27T09:38:32;100234.13;;;31.00;52.02
56174;BME280;42058;52.308;20.924;2022-08-27T09:41:04;100236.47;;;31.03;52.05
56174;BME280;42058;52.308;20.924;2022-08-27T09:43:34;100234.41;;;31.09;51.43
56174;BME280;42058;52.308;20.924;2022-08-27T09:46:20;100238.11;;;31.12;51.31
56174;BME280;42058;52.308;20.924;2022-08-27T09:48:41;100235.73;;;31.13;50.90
56174;BME280;42058;52.308;20.924;2022-08-27T09:51:13;100229.08;;;31.16;50.89
56174;BME280;42058;52.308;20.924;2022-08-27T09:53:54;100236.37;;;31.19;50.45
56174;BME280;42058;52.308;20.924;2022-08-27T09:56:39;100233.65;;;31.19;50.25
56174;BME280;42058;52.308;20.924;2022-08-27T09:59:11;100228.22;;;31.19;49.41
56174;BME280;42058;52.308;20.924;2022-08-27T10:13:10;100220.79;;;31.13;48.46
56174;BME280;42058;52.308;20.924;2022-08-27T10:16:08;100222.15;;;31.13;48.19
56174;BME280;42058;52.308;20.924;2022-08-27T10:27:27;100217.41;;;31.11;47.04
56174;BME280;42058;52.308;20.924;2022-08-27T10:30:03;100214.70;;;31.11;46.53
56174;BME280;42058;52.308;20.924;2022-08-27T10:33:24;100211.28;;;31.13;47.45
56174;BME280;42058;52.308;20.924;2022-08-27T10:35:27;100208.56;;;31.13;47.20
56174;BME280;42058;52.308;20.924;2022-08-27T10:38:13;100212.46;;;31.15;47.33
56174;BME280;42058;52.308;20.924;2022-08-27T10:40:51;100212.29;;;31.16;46.99
56174;BME280;42058;52.308;20.924;2022-08-27T10:49:36;100195.28;;;31.18;47.05
56174;BME280;42058;52.308;20.924;2022-08-27T10:52:13;100199.02;;;31.17;46.48
56174;BME280;42058;52.308;20.924;2022-08-27T11:00:19;100199.71;;;31.15;46.66
56174;BME280;42058;52.308;20.924;2022-08-27T11:02:54;100199.71;;;31.15;46.32
56174;BME280;42058;52.308;20.924;2022-08-27T11:05:35;100197.83;;;31.16;45.50
56174;BME280;42058;52.308;20.924;2022-08-27T11:08:03;100187.66;;;31.18;45.71
56174;BME280;42058;52.308;20.924;2022-08-27T11:10:54;100189.84;;;31.18;45.65
56174;BME280;42058;52.308;20.924;2022-08-27T11:13:38;100188.31;;;31.20;46.11
56174;BME280;42058;52.308;20.924;2022-08-27T11:16:22;100189.15;;;31.20;45.78
56174;BME280;42058;52.308;20.924;2022-08-27T11:19:00;100188.14;;;31.21;45.69
56174;BME280;42058;52.308;20.924;2022-08-27T11:21:36;100189.98;;;31.21;45.27
56174;BME280;42058;52.308;20.924;2022-08-27T11:24:21;100184.38;;;31.22;45.36
56174;BME280;42058;52.308;20.924;2022-08-27T11:27:02;100181.66;;;31.22;45.31
56174;BME280;42058;52.308;20.924;2022-08-27T11:29:38;100177.58;;;31.22;44.67
56174;BME280;42058;52.308;20.924;2022-08-27T11:32:48;100183.67;;;31.24;43.82
56174;BME280;42058;52.308;20.924;2022-08-27T11:40:58;100177.22;;;31.26;41.33
56174;BME280;42058;52.308;20.924;2022-08-27T11:43:28;100183.84;;;31.27;42.33
56174;BME280;42058;52.308;20.924;2022-08-27T11:46:00;100179.55;;;31.29;41.60
56174;BME280;42058;52.308;20.924;2022-08-27T11:48:39;100179.90;;;31.30;40.66
56174;BME280;42058;52.308;20.924;2022-08-27T11:51:13;100174.11;;;31.33;41.00
56174;BME280;42058;52.308;20.924;2022-08-27T11:53:56;100174.41;;;31.38;40.99
56174;BME280;42058;52.308;20.924;2022-08-27T11:56:34;100175.73;;;31.42;40.66
56174;BME280;42058;52.308;20.924;2022-08-27T12:01:57;100181.77;;;31.52;40.19
56174;BME280;42058;52.308;20.924;2022-08-27T12:04:43;100171.85;;;31.59;39.59
56174;BME280;42058;52.308;20.924;2022-08-27T12:12:49;100170.67;;;31.77;39.33
56174;BME280;42058;52.308;20.924;2022-08-27T12:15:49;100167.86;;;31.85;39.29
56174;BME280;42058;52.308;20.924;2022-08-27T12:21:39;100160.89;;;32.06;38.50
56174;BME280;42058;52.308;20.924;2022-08-27T12:24:52;100161.42;;;32.16;38.17
56174;BME280;42058;52.308;20.924;2022-08-27T12:33:04;100159.55;;;32.31;38.41
56174;BME280;42058;52.308;20.924;2022-08-27T12:35:43;100157.36;;;32.42;38.45
56174;BME280;42058;52.308;20.924;2022-08-27T12:38:35;100153.19;;;32.50;39.50
56174;BME280;42058;52.308;20.924;2022-08-27T12:41:00;100149.66;;;32.60;39.70
56174;BME280;42058;52.308;20.924;2022-08-27T12:43:36;100148.91;;;32.66;37.64
56174;BME280;42058;52.308;20.924;2022-08-27T12:46:07;100144.38;;;32.73;37.60
56174;BME280;42058;52.308;20.924;2022-08-27T12:48:45;100143.22;;;32.83;37.91
56174;BME280;42058;52.308;20.924;2022-08-27T12:51:22;100144.14;;;32.90;36.40
56174;BME280;42058;52.308;20.924;2022-08-27T12:54:52;100147.32;;;32.93;36.26
56174;BME280;42058;52.308;20.924;2022-08-27T13:00:17;100148.99;;;33.05;36.09
56174;BME280;42058;52.308;20.924;2022-08-27T13:02:54;100149.59;;;33.11;35.51
56174;BME280;42058;52.308;20.924;2022-08-27T13:05:22;100148.00;;;33.17;35.70
56174;BME280;42058;52.308;20.924;2022-08-27T13:07:50;100140.05;;;33.22;36.20
56174;BME280;42058;52.308;20.924;2022-08-27T13:10:29;100147.66;;;33.27;36.45
56174;BME280;42058;52.308;20.924;2022-08-27T13:13:07;100142.84;;;33.29;35.84
56174;BME280;42058;52.308;20.924;2022-08-27T13:15:48;100134.67;;;33.29;34.97
56174;BME280;42058;52.308;20.924;2022-08-27T13:18:14;100141.18;;;33.28;35.08
56174;BME280;42058;52.308;20.924;2022-08-27T13:20:43;100139.48;;;33.27;34.90
56174;BME280;42058;52.308;20.924;2022-08-27T13:23:17;100134.41;;;33.24;34.98
56174;BME280;42058;52.308;20.924;2022-08-27T13:26:02;100126.95;;;33.22;35.20
56174;BME280;42058;52.308;20.924;2022-08-27T13:28:27;100137.93;;;33.18;35.28
56174;BME280;42058;52.308;20.924;2022-08-27T13:30:57;100135.47;;;33.12;34.67
56174;BME280;42058;52.308;20.924;2022-08-27T13:33:30;100141.16;;;33.06;34.25
56174;BME280;42058;52.308;20.924;2022-08-27T13:35:58;100143.23;;;33.04;34.64
56174;BME280;42058;52.308;20.924;2022-08-27T13:38:43;100140.25;;;32.99;34.33
56174;BME280;42058;52.308;20.924;2022-08-27T13:41:17;100134.53;;;32.94;34.54
56174;BME280;42058;52.308;20.924;2022-08-27T13:43:46;100140.88;;;32.90;34.49
56174;BME280;42058;52.308;20.924;2022-08-27T13:46:19;100134.67;;;32.86;35.27
56174;BME280;42058;52.308;20.924;2022-08-27T13:48:46;100140.03;;;32.79;34.74
56174;BME280;42058;52.308;20.924;2022-08-27T13:51:14;100136.70;;;32.73;35.27
56174;BME280;42058;52.308;20.924;2022-08-27T13:53:47;100138.31;;;32.67;35.22
56174;BME280;42058;52.308;20.924;2022-08-27T13:56:34;100129.56;;;32.61;35.04
56174;BME280;42058;52.308;20.924;2022-08-27T13:59:08;100133.03;;;32.55;34.70